sensor_id;sensor_type;location;lat;lon;timestamp;temperature;humidity
15107;DHT22;7654;45.308;-75.096;2023-05-13T00:02:24;21.40;90.90
15107;DHT22;7654;45.308;-75.096;2023-05-13T00:04:56;21.10;91.40
15107;DHT22;7654;45.308;-75.096;2023-05-13T00:07:27;20.90;91.40
15107;DHT22;7654;45.308;-75.096;2023-05-13T00:09:58;20.80;91.60
15107;DHT22;7654;45.308;-75.096;2023-05-13T00:12:29;20.60;91.20
15107;DHT22;7654;45.308;-75.096;2023-05-13T00:15:00;20.40;91.80
15107;DHT22;7654;45.308;-75.096;2023-05-13T00:17:32;20.10;91.90
15107;DHT22;7654;45.308;-75.096;2023-05-13T00:20:03;20.10;91.90
15107;DHT22;7654;45.308;-75.096;2023-05-13T00:22:35;20.00;91.80
15107;DHT22;7654;45.308;-75.096;2023-05-13T00:25:06;19.90;92.20
15107;DHT22;7654;45.308;-75.096;2023-05-13T00:27:37;19.80;92.30
15107;DHT22;7654;45.308;-75.096;2023-05-13T00:30:08;19.60;92.60
15107;DHT22;7654;45.308;-75.096;2023-05-13T00:32:41;19.40;92.90
15107;DHT22;7654;45.308;-75.096;2023-05-13T00:35:11;19.20;93.30
15107;DHT22;7654;45.308;-75.096;2023-05-13T00:37:42;19.20;93.40
15107;DHT22;7654;45.308;-75.096;2023-05-13T00:40:18;19.10;94.00
15107;DHT22;7654;45.308;-75.096;2023-05-13T00:42:50;18.90;94.50
15107;DHT22;7654;45.308;-75.096;2023-05-13T00:45:21;18.80;94.80
15107;DHT22;7654;45.308;-75.096;2023-05-13T00:47:53;18.70;95.00
15107;DHT22;7654;45.308;-75.096;2023-05-13T00:50:24;18.60;95.10
15107;DHT22;7654;45.308;-75.096;2023-05-13T00:52:57;18.60;95.10
15107;DHT22;7654;45.308;-75.096;2023-05-13T00:55:28;18.60;95.40
15107;DHT22;7654;45.308;-75.096;2023-05-13T00:57:59;18.60;95.30
15107;DHT22;7654;45.308;-75.096;2023-05-13T01:00:34;18.70;94.90
15107;DHT22;7654;45.308;-75.096;2023-05-13T01:03:11;18.70;95.20
15107;DHT22;7654;45.308;-75.096;2023-05-13T01:05:49;18.80;95.00
15107;DHT22;7654;45.308;-75.096;2023-05-13T01:08:30;18.80;94.90
15107;DHT22;7654;45.308;-75.096;2023-05-13T01:11:10;18.90;94.90
15107;DHT22;7654;45.308;-75.096;2023-05-13T01:13:47;19.00;94.80
15107;DHT22;7654;45.308;-75.096;2023-05-13T01:16:22;19.10;94.90
15107;DHT22;7654;45.308;-75.096;2023-05-13T01:18:57;19.00;95.50
15107;DHT22;7654;45.308;-75.096;2023-05-13T01:21:34;18.70;95.80
15107;DHT22;7654;45.308;-75.096;2023-05-13T01:24:06;18.50;96.40
15107;DHT22;7654;45.308;-75.096;2023-05-13T01:26:38;18.30;97.10
15107;DHT22;7654;45.308;-75.096;2023-05-13T01:29:09;18.20;97.20
15107;DHT22;7654;45.308;-75.096;2023-05-13T01:31:41;18.30;97.10
15107;DHT22;7654;45.308;-75.096;2023-05-13T01:34:13;18.30;97.30
15107;DHT22;7654;45.308;-75.096;2023-05-13T01:36:47;18.20;97.90
15107;DHT22;7654;45.308;-75.096;2023-05-13T01:39:18;18.20;97.50
15107;DHT22;7654;45.308;-75.096;2023-05-13T01:41:49;18.20;97.40
15107;DHT22;7654;45.308;-75.096;2023-05-13T01:44:19;18.20;97.00
15107;DHT22;7654;45.308;-75.096;2023-05-13T01:46:50;18.20;96.70
15107;DHT22;7654;45.308;-75.096;2023-05-13T01:49:20;18.30;95.90
15107;DHT22;7654;45.308;-75.096;2023-05-13T01:51:53;18.50;95.30
15107;DHT22;7654;45.308;-75.096;2023-05-13T01:54:24;18.60;95.20
15107;DHT22;7654;45.308;-75.096;2023-05-13T01:56:54;18.60;94.90
15107;DHT22;7654;45.308;-75.096;2023-05-13T01:59:25;18.70;94.50
15107;DHT22;7654;45.308;-75.096;2023-05-13T02:01:55;18.60;94.80
15107;DHT22;7654;45.308;-75.096;2023-05-13T02:04:25;18.50;94.90
15107;DHT22;7654;45.308;-75.096;2023-05-13T02:06:58;18.40;95.10
15107;DHT22;7654;45.308;-75.096;2023-05-13T02:09:28;18.20;95.50
15107;DHT22;7654;45.308;-75.096;2023-05-13T02:11:59;18.00;96.20
15107;DHT22;7654;45.308;-75.096;2023-05-13T02:14:29;17.90;96.30
15107;DHT22;7654;45.308;-75.096;2023-05-13T02:17:00;17.70;96.50
15107;DHT22;7654;45.308;-75.096;2023-05-13T02:19:30;17.50;96.90
15107;DHT22;7654;45.308;-75.096;2023-05-13T02:22:02;17.30;97.10
15107;DHT22;7654;45.308;-75.096;2023-05-13T02:24:32;17.10;97.30
15107;DHT22;7654;45.308;-75.096;2023-05-13T02:27:07;17.00;97.70
15107;DHT22;7654;45.308;-75.096;2023-05-13T02:29:39;16.90;97.70
15107;DHT22;7654;45.308;-75.096;2023-05-13T02:32:10;16.80;97.90
15107;DHT22;7654;45.308;-75.096;2023-05-13T02:34:40;16.70;97.70
15107;DHT22;7654;45.308;-75.096;2023-05-13T02:37:12;16.80;97.80
15107;DHT22;7654;45.308;-75.096;2023-05-13T02:39:42;16.80;97.40
15107;DHT22;7654;45.308;-75.096;2023-05-13T02:42:13;16.90;96.70
15107;DHT22;7654;45.308;-75.096;2023-05-13T02:44:43;16.90;96.50
15107;DHT22;7654;45.308;-75.096;2023-05-13T02:47:13;16.90;96.40
15107;DHT22;7654;45.308;-75.096;2023-05-13T02:49:44;16.90;96.20
15107;DHT22;7654;45.308;-75.096;2023-05-13T02:52:16;16.90;96.40
15107;DHT22;7654;45.308;-75.096;2023-05-13T02:54:46;16.80;96.40
15107;DHT22;7654;45.308;-75.096;2023-05-13T02:57:17;16.70;96.50
15107;DHT22;7654;45.308;-75.096;2023-05-13T02:59:48;16.60;96.30
15107;DHT22;7654;45.308;-75.096;2023-05-13T03:02:18;16.50;96.50
15107;DHT22;7654;45.308;-75.096;2023-05-13T03:04:48;16.30;96.60
15107;DHT22;7654;45.308;-75.096;2023-05-13T03:07:20;16.20;96.40
15107;DHT22;7654;45.308;-75.096;2023-05-13T03:09:51;16.40;96.40
15107;DHT22;7654;45.308;-75.096;2023-05-13T03:12:21;16.50;96.20
15107;DHT22;7654;45.308;-75.096;2023-05-13T03:14:51;16.50;96.30
15107;DHT22;7654;45.308;-75.096;2023-05-13T03:17:22;16.50;95.70
15107;DHT22;7654;45.308;-75.096;2023-05-13T03:19:53;16.70;94.70
15107;DHT22;7654;45.308;-75.096;2023-05-13T03:22:25;16.80;94.00
15107;DHT22;7654;45.308;-75.096;2023-05-13T03:24:55;17.00;93.90
15107;DHT22;7654;45.308;-75.096;2023-05-13T03:27:26;17.00;94.20
15107;DHT22;7654;45.308;-75.096;2023-05-13T03:29:56;17.10;93.10
15107;DHT22;7654;45.308;-75.096;2023-05-13T03:32:26;17.20;92.20
15107;DHT22;7654;45.308;-75.096;2023-05-13T03:34:58;17.30;91.70
15107;DHT22;7654;45.308;-75.096;2023-05-13T03:37:30;17.30;91.70
15107;DHT22;7654;45.308;-75.096;2023-05-13T03:40:01;17.20;92.30
15107;DHT22;7654;45.308;-75.096;2023-05-13T03:42:32;17.00;92.50
15107;DHT22;7654;45.308;-75.096;2023-05-13T03:45:02;17.00;92.20
15107;DHT22;7654;45.308;-75.096;2023-05-13T03:47:32;16.90;92.00
15107;DHT22;7654;45.308;-75.096;2023-05-13T03:50:04;16.90;92.20
15107;DHT22;7654;45.308;-75.096;2023-05-13T03:52:35;17.00;92.20
15107;DHT22;7654;45.308;-75.096;2023-05-13T03:55:06;16.90;92.00
15107;DHT22;7654;45.308;-75.096;2023-05-13T03:57:37;16.90;91.90
15107;DHT22;7654;45.308;-75.096;2023-05-13T04:00:08;16.90;92.30
15107;DHT22;7654;45.308;-75.096;2023-05-13T04:02:39;16.80;92.00
15107;DHT22;7654;45.308;-75.096;2023-05-13T04:05:09;16.70;92.30
15107;DHT22;7654;45.308;-75.096;2023-05-13T04:07:42;16.70;92.50
15107;DHT22;7654;45.308;-75.096;2023-05-13T04:10:13;16.50;92.40
15107;DHT22;7654;45.308;-75.096;2023-05-13T04:12:44;16.40;92.30
15107;DHT22;7654;45.308;-75.096;2023-05-13T04:15:14;16.40;92.60
15107;DHT22;7654;45.308;-75.096;2023-05-13T04:17:44;16.40;92.80
15107;DHT22;7654;45.308;-75.096;2023-05-13T04:20:15;16.30;92.80
15107;DHT22;7654;45.308;-75.096;2023-05-13T04:22:47;16.20;92.80
15107;DHT22;7654;45.308;-75.096;2023-05-13T04:25:17;16.00;93.20
15107;DHT22;7654;45.308;-75.096;2023-05-13T04:27:48;16.00;93.10
15107;DHT22;7654;45.308;-75.096;2023-05-13T04:30:18;15.90;93.50
15107;DHT22;7654;45.308;-75.096;2023-05-13T04:32:49;15.80;93.90
15107;DHT22;7654;45.308;-75.096;2023-05-13T04:35:20;15.60;94.00
15107;DHT22;7654;45.308;-75.096;2023-05-13T04:37:52;15.60;94.30
15107;DHT22;7654;45.308;-75.096;2023-05-13T04:40:22;15.60;94.30
15107;DHT22;7654;45.308;-75.096;2023-05-13T04:42:53;15.60;94.40
15107;DHT22;7654;45.308;-75.096;2023-05-13T04:45:24;15.90;92.90
15107;DHT22;7654;45.308;-75.096;2023-05-13T04:47:54;16.10;92.30
15107;DHT22;7654;45.308;-75.096;2023-05-13T04:50:25;16.30;91.80
15107;DHT22;7654;45.308;-75.096;2023-05-13T04:52:57;16.40;91.80
15107;DHT22;7654;45.308;-75.096;2023-05-13T04:55:28;16.30;92.10
15107;DHT22;7654;45.308;-75.096;2023-05-13T04:57:58;16.20;92.00
15107;DHT22;7654;45.308;-75.096;2023-05-13T05:00:29;16.20;92.40
15107;DHT22;7654;45.308;-75.096;2023-05-13T05:02:59;16.10;92.60
15107;DHT22;7654;45.308;-75.096;2023-05-13T05:05:29;16.00;92.00
15107;DHT22;7654;45.308;-75.096;2023-05-13T05:08:02;16.10;91.80
15107;DHT22;7654;45.308;-75.096;2023-05-13T05:10:32;16.10;91.30
15107;DHT22;7654;45.308;-75.096;2023-05-13T05:13:03;16.10;91.60
15107;DHT22;7654;45.308;-75.096;2023-05-13T05:15:33;16.00;90.70
15107;DHT22;7654;45.308;-75.096;2023-05-13T05:18:04;16.00;90.40
15107;DHT22;7654;45.308;-75.096;2023-05-13T05:20:37;16.00;89.80
15107;DHT22;7654;45.308;-75.096;2023-05-13T05:23:09;15.90;90.30
15107;DHT22;7654;45.308;-75.096;2023-05-13T05:25:39;15.90;89.60
15107;DHT22;7654;45.308;-75.096;2023-05-13T05:28:09;15.90;88.00
15107;DHT22;7654;45.308;-75.096;2023-05-13T05:30:40;15.80;87.40
15107;DHT22;7654;45.308;-75.096;2023-05-13T05:33:10;15.70;87.20
15107;DHT22;7654;45.308;-75.096;2023-05-13T05:35:40;15.60;86.40
15107;DHT22;7654;45.308;-75.096;2023-05-13T05:38:12;15.60;86.60
15107;DHT22;7654;45.308;-75.096;2023-05-13T05:40:44;15.50;87.00
15107;DHT22;7654;45.308;-75.096;2023-05-13T05:43:14;15.40;88.30
15107;DHT22;7654;45.308;-75.096;2023-05-13T05:45:45;15.30;88.90
15107;DHT22;7654;45.308;-75.096;2023-05-13T05:48:15;15.10;88.70
15107;DHT22;7654;45.308;-75.096;2023-05-13T05:50:46;15.00;89.10
15107;DHT22;7654;45.308;-75.096;2023-05-13T05:53:18;14.80;89.10
15107;DHT22;7654;45.308;-75.096;2023-05-13T05:55:48;14.60;89.00
15107;DHT22;7654;45.308;-75.096;2023-05-13T05:58:19;14.50;88.30
15107;DHT22;7654;45.308;-75.096;2023-05-13T06:00:50;14.50;88.10
15107;DHT22;7654;45.308;-75.096;2023-05-13T06:03:21;14.50;88.70
15107;DHT22;7654;45.308;-75.096;2023-05-13T06:05:52;14.40;88.90
15107;DHT22;7654;45.308;-75.096;2023-05-13T06:08:24;14.20;89.30
15107;DHT22;7654;45.308;-75.096;2023-05-13T06:10:57;14.10;89.50
15107;DHT22;7654;45.308;-75.096;2023-05-13T06:13:27;14.10;89.70
15107;DHT22;7654;45.308;-75.096;2023-05-13T06:15:58;13.90;90.30
15107;DHT22;7654;45.308;-75.096;2023-05-13T06:18:28;13.90;89.10
15107;DHT22;7654;45.308;-75.096;2023-05-13T06:20:58;14.00;89.80
15107;DHT22;7654;45.308;-75.096;2023-05-13T06:23:30;13.90;90.00
15107;DHT22;7654;45.308;-75.096;2023-05-13T06:26:00;13.70;90.50
15107;DHT22;7654;45.308;-75.096;2023-05-13T06:28:30;13.50;90.70
15107;DHT22;7654;45.308;-75.096;2023-05-13T06:31:01;13.40;90.90
15107;DHT22;7654;45.308;-75.096;2023-05-13T06:33:31;13.20;91.30
15107;DHT22;7654;45.308;-75.096;2023-05-13T06:36:02;13.10;91.20
15107;DHT22;7654;45.308;-75.096;2023-05-13T06:38:34;13.10;91.80
15107;DHT22;7654;45.308;-75.096;2023-05-13T06:41:04;13.20;91.00
15107;DHT22;7654;45.308;-75.096;2023-05-13T06:43:35;13.20;91.20
15107;DHT22;7654;45.308;-75.096;2023-05-13T06:46:05;13.20;91.30
15107;DHT22;7654;45.308;-75.096;2023-05-13T06:48:36;13.30;91.30
15107;DHT22;7654;45.308;-75.096;2023-05-13T06:51:06;13.30;91.50
15107;DHT22;7654;45.308;-75.096;2023-05-13T06:53:38;13.20;91.40
15107;DHT22;7654;45.308;-75.096;2023-05-13T06:56:08;13.10;91.60
15107;DHT22;7654;45.308;-75.096;2023-05-13T06:58:39;13.10;91.60
15107;DHT22;7654;45.308;-75.096;2023-05-13T07:01:09;13.00;92.00
15107;DHT22;7654;45.308;-75.096;2023-05-13T07:03:39;12.80;92.30
15107;DHT22;7654;45.308;-75.096;2023-05-13T07:06:10;12.60;92.40
15107;DHT22;7654;45.308;-75.096;2023-05-13T07:08:42;12.40;92.80
15107;DHT22;7654;45.308;-75.096;2023-05-13T07:11:12;12.40;93.00
15107;DHT22;7654;45.308;-75.096;2023-05-13T07:13:43;12.20;93.20
15107;DHT22;7654;45.308;-75.096;2023-05-13T07:16:13;12.00;93.70
15107;DHT22;7654;45.308;-75.096;2023-05-13T07:18:43;11.90;93.80
15107;DHT22;7654;45.308;-75.096;2023-05-13T07:21:14;11.70;94.10
15107;DHT22;7654;45.308;-75.096;2023-05-13T07:23:46;11.50;94.50
15107;DHT22;7654;45.308;-75.096;2023-05-13T07:26:16;11.20;94.50
15107;DHT22;7654;45.308;-75.096;2023-05-13T07:28:46;11.00;95.10
15107;DHT22;7654;45.308;-75.096;2023-05-13T07:31:16;10.80;95.30
15107;DHT22;7654;45.308;-75.096;2023-05-13T07:33:47;10.60;95.90
15107;DHT22;7654;45.308;-75.096;2023-05-13T07:36:17;10.40;96.20
15107;DHT22;7654;45.308;-75.096;2023-05-13T07:38:50;10.20;96.60
15107;DHT22;7654;45.308;-75.096;2023-05-13T07:41:20;10.00;97.20
15107;DHT22;7654;45.308;-75.096;2023-05-13T07:43:51;9.80;98.00
15107;DHT22;7654;45.308;-75.096;2023-05-13T07:46:21;9.60;98.20
15107;DHT22;7654;45.308;-75.096;2023-05-13T07:48:52;9.50;99.10
15107;DHT22;7654;45.308;-75.096;2023-05-13T07:51:22;9.40;99.80
15107;DHT22;7654;45.308;-75.096;2023-05-13T07:53:54;9.40;99.90
15107;DHT22;7654;45.308;-75.096;2023-05-13T07:56:25;9.30;99.90
15107;DHT22;7654;45.308;-75.096;2023-05-13T07:58:55;9.20;99.90
15107;DHT22;7654;45.308;-75.096;2023-05-13T08:01:25;9.10;99.90
15107;DHT22;7654;45.308;-75.096;2023-05-13T08:03:56;8.90;99.90
15107;DHT22;7654;45.308;-75.096;2023-05-13T08:06:26;8.80;99.90
15107;DHT22;7654;45.308;-75.096;2023-05-13T08:08:59;8.60;99.90
15107;DHT22;7654;45.308;-75.096;2023-05-13T08:11:30;8.40;99.90
15107;DHT22;7654;45.308;-75.096;2023-05-13T08:14:00;8.30;99.90
15107;DHT22;7654;45.308;-75.096;2023-05-13T08:16:30;8.20;99.90
15107;DHT22;7654;45.308;-75.096;2023-05-13T08:19:03;8.00;99.90
15107;DHT22;7654;45.308;-75.096;2023-05-13T08:21:33;7.90;99.90
15107;DHT22;7654;45.308;-75.096;2023-05-13T08:24:06;7.80;99.90
15107;DHT22;7654;45.308;-75.096;2023-05-13T08:26:36;7.70;99.90
15107;DHT22;7654;45.308;-75.096;2023-05-13T08:29:07;7.60;99.90
15107;DHT22;7654;45.308;-75.096;2023-05-13T08:31:40;7.60;99.90
15107;DHT22;7654;45.308;-75.096;2023-05-13T08:34:10;7.60;99.90
15107;DHT22;7654;45.308;-75.096;2023-05-13T08:36:40;7.80;99.90
15107;DHT22;7654;45.308;-75.096;2023-05-13T08:39:12;7.90;99.90
15107;DHT22;7654;45.308;-75.096;2023-05-13T08:41:44;8.10;99.90
15107;DHT22;7654;45.308;-75.096;2023-05-13T08:44:17;8.00;99.90
15107;DHT22;7654;45.308;-75.096;2023-05-13T08:46:55;8.00;99.90
15107;DHT22;7654;45.308;-75.096;2023-05-13T08:49:27;7.90;99.90
15107;DHT22;7654;45.308;-75.096;2023-05-13T08:51:57;7.80;99.90
15107;DHT22;7654;45.308;-75.096;2023-05-13T08:54:30;7.80;99.90
15107;DHT22;7654;45.308;-75.096;2023-05-13T08:57:01;7.70;99.90
15107;DHT22;7654;45.308;-75.096;2023-05-13T08:59:32;7.60;99.90
15107;DHT22;7654;45.308;-75.096;2023-05-13T09:02:03;7.60;99.90
15107;DHT22;7654;45.308;-75.096;2023-05-13T09:04:34;7.60;99.90
15107;DHT22;7654;45.308;-75.096;2023-05-13T09:07:06;7.50;99.90
15107;DHT22;7654;45.308;-75.096;2023-05-13T09:09:38;7.40;99.90
15107;DHT22;7654;45.308;-75.096;2023-05-13T09:12:08;7.30;99.90
15107;DHT22;7654;45.308;-75.096;2023-05-13T09:14:39;7.30;99.90
15107;DHT22;7654;45.308;-75.096;2023-05-13T09:17:09;7.20;99.90
15107;DHT22;7654;45.308;-75.096;2023-05-13T09:19:41;7.20;99.90
15107;DHT22;7654;45.308;-75.096;2023-05-13T09:22:16;7.10;99.90
15107;DHT22;7654;45.308;-75.096;2023-05-13T09:24:54;7.00;99.90
15107;DHT22;7654;45.308;-75.096;2023-05-13T09:27:35;6.90;99.90
15107;DHT22;7654;45.308;-75.096;2023-05-13T09:30:07;6.80;99.90
15107;DHT22;7654;45.308;-75.096;2023-05-13T09:32:38;6.70;99.90
15107;DHT22;7654;45.308;-75.096;2023-05-13T09:35:11;6.70;99.90
15107;DHT22;7654;45.308;-75.096;2023-05-13T09:37:47;6.70;99.90
15107;DHT22;7654;45.308;-75.096;2023-05-13T09:40:19;6.70;99.90
15107;DHT22;7654;45.308;-75.096;2023-05-13T09:42:50;6.80;99.90
15107;DHT22;7654;45.308;-75.096;2023-05-13T09:45:23;6.90;99.90
15107;DHT22;7654;45.308;-75.096;2023-05-13T09:47:54;7.00;99.90
15107;DHT22;7654;45.308;-75.096;2023-05-13T09:50:24;7.00;99.90
15107;DHT22;7654;45.308;-75.096;2023-05-13T09:52:55;7.00;99.90
15107;DHT22;7654;45.308;-75.096;2023-05-13T09:55:28;6.80;99.90
15107;DHT22;7654;45.308;-75.096;2023-05-13T09:57:59;6.70;99.90
15107;DHT22;7654;45.308;-75.096;2023-05-13T10:00:29;6.60;99.90
15107;DHT22;7654;45.308;-75.096;2023-05-13T10:03:03;6.50;99.90
15107;DHT22;7654;45.308;-75.096;2023-05-13T10:05:34;6.40;99.90
15107;DHT22;7654;45.308;-75.096;2023-05-13T10:08:04;6.30;99.90
15107;DHT22;7654;45.308;-75.096;2023-05-13T10:10:40;6.20;99.90
15107;DHT22;7654;45.308;-75.096;2023-05-13T10:13:13;6.10;99.90
15107;DHT22;7654;45.308;-75.096;2023-05-13T10:15:48;6.00;99.90
15107;DHT22;7654;45.308;-75.096;2023-05-13T10:18:20;5.90;99.90
15107;DHT22;7654;45.308;-75.096;2023-05-13T10:20:51;6.00;99.90
15107;DHT22;7654;45.308;-75.096;2023-05-13T10:23:22;6.00;99.90
15107;DHT22;7654;45.308;-75.096;2023-05-13T10:25:54;6.10;99.90
15107;DHT22;7654;45.308;-75.096;2023-05-13T10:28:25;6.20;99.90
15107;DHT22;7654;45.308;-75.096;2023-05-13T10:30:55;6.30;99.90
15107;DHT22;7654;45.308;-75.096;2023-05-13T10:33:26;6.40;99.90
15107;DHT22;7654;45.308;-75.096;2023-05-13T10:36:05;6.40;99.90
15107;DHT22;7654;45.308;-75.096;2023-05-13T10:38:52;6.50;99.90
15107;DHT22;7654;45.308;-75.096;2023-05-13T10:41:50;6.70;99.90
15107;DHT22;7654;45.308;-75.096;2023-05-13T10:44:27;6.80;99.90
15107;DHT22;7654;45.308;-75.096;2023-05-13T10:46:58;6.90;99.90
15107;DHT22;7654;45.308;-75.096;2023-05-13T10:49:32;7.10;99.90
15107;DHT22;7654;45.308;-75.096;2023-05-13T10:52:07;7.20;99.90
15107;DHT22;7654;45.308;-75.096;2023-05-13T10:54:40;7.50;99.90
15107;DHT22;7654;45.308;-75.096;2023-05-13T10:57:19;7.60;99.90
15107;DHT22;7654;45.308;-75.096;2023-05-13T11:00:15;7.80;99.90
15107;DHT22;7654;45.308;-75.096;2023-05-13T11:02:50;8.10;99.90
15107;DHT22;7654;45.308;-75.096;2023-05-13T11:05:21;8.40;99.90
15107;DHT22;7654;45.308;-75.096;2023-05-13T11:07:55;8.50;99.90
15107;DHT22;7654;45.308;-75.096;2023-05-13T11:10:26;8.70;99.90
15107;DHT22;7654;45.308;-75.096;2023-05-13T11:13:21;8.90;99.90
15107;DHT22;7654;45.308;-75.096;2023-05-13T11:15:53;9.20;99.90
15107;DHT22;7654;45.308;-75.096;2023-05-13T11:18:29;9.60;99.90
15107;DHT22;7654;45.308;-75.096;2023-05-13T11:21:02;9.80;99.90
15107;DHT22;7654;45.308;-75.096;2023-05-13T11:23:48;10.00;99.90
15107;DHT22;7654;45.308;-75.096;2023-05-13T11:26:19;10.20;99.90
15107;DHT22;7654;45.308;-75.096;2023-05-13T11:28:56;10.40;99.90
15107;DHT22;7654;45.308;-75.096;2023-05-13T11:31:28;10.60;99.90
15107;DHT22;7654;45.308;-75.096;2023-05-13T11:34:12;10.80;99.90
15107;DHT22;7654;45.308;-75.096;2023-05-13T11:36:44;11.00;99.90
15107;DHT22;7654;45.308;-75.096;2023-05-13T11:39:16;11.30;99.90
15107;DHT22;7654;45.308;-75.096;2023-05-13T11:41:48;11.60;99.90
15107;DHT22;7654;45.308;-75.096;2023-05-13T11:44:22;11.80;99.90
15107;DHT22;7654;45.308;-75.096;2023-05-13T11:46:53;12.10;99.90
15107;DHT22;7654;45.308;-75.096;2023-05-13T11:49:37;12.40;99.90
15107;DHT22;7654;45.308;-75.096;2023-05-13T11:52:10;12.60;99.90
15107;DHT22;7654;45.308;-75.096;2023-05-13T11:54:41;12.90;99.90
15107;DHT22;7654;45.308;-75.096;2023-05-13T11:57:20;13.00;99.90
15107;DHT22;7654;45.308;-75.096;2023-05-13T11:59:54;13.10;99.90
15107;DHT22;7654;45.308;-75.096;2023-05-13T12:02:26;13.10;99.90
15107;DHT22;7654;45.308;-75.096;2023-05-13T12:04:59;13.20;99.90
15107;DHT22;7654;45.308;-75.096;2023-05-13T12:07:32;13.20;99.90
15107;DHT22;7654;45.308;-75.096;2023-05-13T12:10:04;13.30;99.90
15107;DHT22;7654;45.308;-75.096;2023-05-13T12:12:36;13.40;99.90
15107;DHT22;7654;45.308;-75.096;2023-05-13T12:15:10;13.50;99.90
15107;DHT22;7654;45.308;-75.096;2023-05-13T12:17:41;13.60;99.90
15107;DHT22;7654;45.308;-75.096;2023-05-13T12:20:12;13.70;99.90
15107;DHT22;7654;45.308;-75.096;2023-05-13T12:23:01;13.80;99.90
15107;DHT22;7654;45.308;-75.096;2023-05-13T12:25:42;13.90;99.90
15107;DHT22;7654;45.308;-75.096;2023-05-13T12:28:14;14.00;99.90
15107;DHT22;7654;45.308;-75.096;2023-05-13T12:30:54;14.10;99.90
15107;DHT22;7654;45.308;-75.096;2023-05-13T12:33:26;14.30;99.90
15107;DHT22;7654;45.308;-75.096;2023-05-13T12:36:14;14.30;99.90
15107;DHT22;7654;45.308;-75.096;2023-05-13T12:38:58;14.50;99.90
15107;DHT22;7654;45.308;-75.096;2023-05-13T12:41:29;14.60;99.90
15107;DHT22;7654;45.308;-75.096;2023-05-13T12:44:00;14.70;99.90
15107;DHT22;7654;45.308;-75.096;2023-05-13T12:46:33;14.80;99.90
15107;DHT22;7654;45.308;-75.096;2023-05-13T12:49:04;14.90;99.90
15107;DHT22;7654;45.308;-75.096;2023-05-13T12:51:35;14.90;99.00
15107;DHT22;7654;45.308;-75.096;2023-05-13T12:54:05;15.00;98.60
15107;DHT22;7654;45.308;-75.096;2023-05-13T12:56:36;15.20;99.90
15107;DHT22;7654;45.308;-75.096;2023-05-13T12:59:08;15.20;98.90
15107;DHT22;7654;45.308;-75.096;2023-05-13T13:01:40;15.30;98.40
15107;DHT22;7654;45.308;-75.096;2023-05-13T13:04:10;15.40;97.00
15107;DHT22;7654;45.308;-75.096;2023-05-13T13:06:44;15.50;97.00
15107;DHT22;7654;45.308;-75.096;2023-05-13T13:09:14;15.60;96.30
15107;DHT22;7654;45.308;-75.096;2023-05-13T13:11:44;15.70;96.80
15107;DHT22;7654;45.308;-75.096;2023-05-13T13:14:14;15.80;97.10
15107;DHT22;7654;45.308;-75.096;2023-05-13T13:16:46;15.80;96.50
15107;DHT22;7654;45.308;-75.096;2023-05-13T13:19:17;15.80;96.60
15107;DHT22;7654;45.308;-75.096;2023-05-13T13:21:47;15.90;96.10
15107;DHT22;7654;45.308;-75.096;2023-05-13T13:24:18;16.00;96.00
15107;DHT22;7654;45.308;-75.096;2023-05-13T13:26:48;16.10;95.30
15107;DHT22;7654;45.308;-75.096;2023-05-13T13:29:22;16.20;96.00
15107;DHT22;7654;45.308;-75.096;2023-05-13T13:31:54;16.20;96.10
15107;DHT22;7654;45.308;-75.096;2023-05-13T13:34:25;16.30;95.60
15107;DHT22;7654;45.308;-75.096;2023-05-13T13:36:55;16.40;95.20
15107;DHT22;7654;45.308;-75.096;2023-05-13T13:39:25;16.50;96.10
15107;DHT22;7654;45.308;-75.096;2023-05-13T13:41:55;16.60;95.70
15107;DHT22;7654;45.308;-75.096;2023-05-13T13:44:26;16.70;97.00
15107;DHT22;7654;45.308;-75.096;2023-05-13T13:46:57;16.70;93.90
15107;DHT22;7654;45.308;-75.096;2023-05-13T13:49:28;16.70;94.40
15107;DHT22;7654;45.308;-75.096;2023-05-13T13:51:58;16.70;94.60
15107;DHT22;7654;45.308;-75.096;2023-05-13T13:54:29;16.80;96.20
15107;DHT22;7654;45.308;-75.096;2023-05-13T13:57:00;16.90;95.30
15107;DHT22;7654;45.308;-75.096;2023-05-13T13:59:30;16.90;94.60
15107;DHT22;7654;45.308;-75.096;2023-05-13T14:02:02;17.00;95.00
15107;DHT22;7654;45.308;-75.096;2023-05-13T14:04:32;17.00;93.70
15107;DHT22;7654;45.308;-75.096;2023-05-13T14:07:04;17.00;95.60
15107;DHT22;7654;45.308;-75.096;2023-05-13T14:09:34;17.10;95.10
15107;DHT22;7654;45.308;-75.096;2023-05-13T14:12:05;17.20;93.90
15107;DHT22;7654;45.308;-75.096;2023-05-13T14:14:35;17.30;94.90
15107;DHT22;7654;45.308;-75.096;2023-05-13T14:17:13;17.50;94.90
15107;DHT22;7654;45.308;-75.096;2023-05-13T14:19:43;17.40;94.60
15107;DHT22;7654;45.308;-75.096;2023-05-13T14:22:14;17.40;95.10
15107;DHT22;7654;45.308;-75.096;2023-05-13T14:24:44;17.50;93.50
15107;DHT22;7654;45.308;-75.096;2023-05-13T14:27:14;17.60;92.20
15107;DHT22;7654;45.308;-75.096;2023-05-13T14:29:45;17.70;92.70
15107;DHT22;7654;45.308;-75.096;2023-05-13T14:32:17;17.80;93.40
15107;DHT22;7654;45.308;-75.096;2023-05-13T14:34:48;18.00;92.90
15107;DHT22;7654;45.308;-75.096;2023-05-13T14:37:18;18.10;93.50
15107;DHT22;7654;45.308;-75.096;2023-05-13T14:39:48;18.10;92.30
15107;DHT22;7654;45.308;-75.096;2023-05-13T14:42:18;18.20;93.30
15107;DHT22;7654;45.308;-75.096;2023-05-13T14:44:49;18.30;92.40
15107;DHT22;7654;45.308;-75.096;2023-05-13T14:47:21;18.50;92.40
15107;DHT22;7654;45.308;-75.096;2023-05-13T14:49:51;18.70;92.70
15107;DHT22;7654;45.308;-75.096;2023-05-13T14:52:22;18.60;91.70
15107;DHT22;7654;45.308;-75.096;2023-05-13T14:54:52;18.60;92.00
15107;DHT22;7654;45.308;-75.096;2023-05-13T14:57:22;18.40;92.40
15107;DHT22;7654;45.308;-75.096;2023-05-13T14:59:55;18.50;91.40
15107;DHT22;7654;45.308;-75.096;2023-05-13T15:02:28;18.70;90.30
15107;DHT22;7654;45.308;-75.096;2023-05-13T15:04:59;18.80;87.20
15107;DHT22;7654;45.308;-75.096;2023-05-13T15:07:29;18.50;89.30
15107;DHT22;7654;45.308;-75.096;2023-05-13T15:09:59;18.50;90.50
15107;DHT22;7654;45.308;-75.096;2023-05-13T15:12:29;18.70;87.80
15107;DHT22;7654;45.308;-75.096;2023-05-13T15:15:00;18.70;88.10
15107;DHT22;7654;45.308;-75.096;2023-05-13T15:17:31;18.80;86.40
15107;DHT22;7654;45.308;-75.096;2023-05-13T15:20:02;19.00;82.70
15107;DHT22;7654;45.308;-75.096;2023-05-13T15:22:32;19.00;84.50
15107;DHT22;7654;45.308;-75.096;2023-05-13T15:25:03;19.20;85.00
15107;DHT22;7654;45.308;-75.096;2023-05-13T15:27:33;19.40;85.60
15107;DHT22;7654;45.308;-75.096;2023-05-13T15:30:04;19.50;82.20
15107;DHT22;7654;45.308;-75.096;2023-05-13T15:32:36;19.50;83.30
15107;DHT22;7654;45.308;-75.096;2023-05-13T15:35:07;19.70;80.80
15107;DHT22;7654;45.308;-75.096;2023-05-13T15:37:40;19.70;82.90
15107;DHT22;7654;45.308;-75.096;2023-05-13T15:40:13;19.80;78.40
15107;DHT22;7654;45.308;-75.096;2023-05-13T15:42:43;19.70;75.90
15107;DHT22;7654;45.308;-75.096;2023-05-13T15:45:15;19.80;78.80
15107;DHT22;7654;45.308;-75.096;2023-05-13T15:47:47;19.90;78.40
15107;DHT22;7654;45.308;-75.096;2023-05-13T15:50:17;20.10;78.00